Back to Top

Language: 

My Weather Underground Personal Weather Station Historical Data with Graphs...

Delerius Weather Station Historical Data
Daily Summary for December 4, 2017 Units:  English    Metric   Both
« Previous Day
Next Day »
Daily Weekly Monthly Yearly Custom
  High: Low: Average:
Temperature: 50.7 °F 37.2 °F 44.8 °F
Dew Point: 45.7 °F 34.8 °F 41.5 °F
Humidity: 93 % 82 % 89 %
Wind Speed: 11.0 mph 0.0 mph 6.5 mph
Wind Gust: 18.0 mph - -
Wind:- - WNW
Pressure: 30.52 in 30.40 in -
Precipitation: 0.00 in    
Historical Graphs
 
 
Tabular Data for December 4, 2017
Time Temperature Dew Point Pressure Wind Wind Speed Wind Gust Humidity Rainfall Rate (Hourly) solar Conditions
00:00 39.6 °F 37.2 °F 30.41 in WNW 6.0 mph 7.0 mph 91 % 0.00 in 0 W/m2
00:05 39.4 °F 37.0 °F 30.40 in WNW 5.0 mph 6.0 mph 91 % 0.00 in 0 W/m2
00:10 39.4 °F 37.0 °F 30.40 in WNW 6.0 mph 7.0 mph 91 % 0.00 in 0 W/m2
00:15 39.2 °F 36.8 °F 30.41 in WNW 6.0 mph 8.0 mph 91 % 0.00 in 0 W/m2
00:20 39.0 °F 36.6 °F 30.41 in West 5.0 mph 7.0 mph 91 % 0.00 in 0 W/m2
00:21 39.0 °F 36.6 °F 30.41 in West 6.0 mph 7.0 mph 91 % 0.00 in 0 W/m2
00:26 39.0 °F 36.6 °F 30.41 in WNW 4.0 mph 6.0 mph 91 % 0.00 in 0 W/m2
00:31 38.8 °F 36.4 °F 30.41 in WNW 5.0 mph 6.0 mph 91 % 0.00 in 0 W/m2
00:36 38.7 °F 36.3 °F 30.40 in WNW 5.0 mph 6.0 mph 91 % 0.00 in 0 W/m2
00:41 38.7 °F 36.5 °F 30.40 in WNW 6.0 mph 9.0 mph 92 % 0.00 in 0 W/m2
00:42 38.7 °F 36.5 °F 30.40 in WNW 6.0 mph 10.0 mph 92 % 0.00 in 0 W/m2
00:47 38.8 °F 36.7 °F 30.40 in WNW 6.0 mph 9.0 mph 92 % 0.00 in 0 W/m2
00:52 39.0 °F 37.2 °F 30.40 in WNW 9.0 mph 15.0 mph 93 % 0.00 in 0 W/m2
00:57 39.4 °F 37.5 °F 30.40 in WNW 7.0 mph 10.0 mph 93 % 0.00 in 0 W/m2
01:02 39.6 °F 37.7 °F 30.40 in WNW 6.0 mph 9.0 mph 93 % 0.00 in 0 W/m2
01:07 39.7 °F 37.6 °F 30.40 in WNW 6.0 mph 9.0 mph 92 % 0.00 in 0 W/m2
01:12 39.7 °F 37.6 °F 30.41 in WNW 6.0 mph 9.0 mph 92 % 0.00 in 0 W/m2
01:17 39.7 °F 37.6 °F 30.41 in WNW 6.0 mph 8.0 mph 92 % 0.00 in 0 W/m2
01:22 39.7 °F 37.6 °F 30.41 in WNW 6.0 mph 12.0 mph 92 % 0.00 in 0 W/m2
01:27 39.7 °F 37.6 °F 30.41 in WNW 7.0 mph 9.0 mph 92 % 0.00 in 0 W/m2
01:32 39.7 °F 37.6 °F 30.41 in WNW 5.0 mph 9.0 mph 92 % 0.00 in 0 W/m2
01:37 39.6 °F 37.4 °F 30.41 in WNW 6.0 mph 9.0 mph 92 % 0.00 in 0 W/m2
01:42 39.6 °F 37.4 °F 30.41 in WNW 5.0 mph 9.0 mph 92 % 0.00 in 0 W/m2
01:47 39.6 °F 37.4 °F 30.41 in WNW 7.0 mph 9.0 mph 92 % 0.00 in 0 W/m2
01:52 39.6 °F 37.4 °F 30.41 in WNW 6.0 mph 9.0 mph 92 % 0.00 in 0 W/m2
01:57 39.6 °F 37.4 °F 30.41 in WNW 6.0 mph 9.0 mph 92 % 0.00 in 0 W/m2
02:02 39.4 °F 37.0 °F 30.41 in WNW 7.0 mph 10.0 mph 91 % 0.00 in 0 W/m2
02:07 39.4 °F 37.0 °F 30.41 in WNW 6.0 mph 10.0 mph 91 % 0.00 in 0 W/m2
02:12 39.4 °F 37.0 °F 30.41 in WNW 7.0 mph 12.0 mph 91 % 0.00 in 0 W/m2
02:17 39.4 °F 37.0 °F 30.41 in WNW 4.0 mph 6.0 mph 91 % 0.00 in 0 W/m2
02:22 39.2 °F 36.8 °F 30.41 in WNW 2.0 mph 5.0 mph 91 % 0.00 in 0 W/m2
02:27 39.0 °F 36.6 °F 30.41 in WNW 1.0 mph 4.0 mph 91 % 0.00 in 0 W/m2
02:32 38.8 °F 36.4 °F 30.41 in WNW 5.0 mph 9.0 mph 91 % 0.00 in 0 W/m2
02:37 38.7 °F 36.3 °F 30.41 in WNW 1.0 mph 5.0 mph 91 % 0.00 in 0 W/m2
02:42 38.5 °F 36.1 °F 30.41 in WNW 2.0 mph 6.0 mph 91 % 0.00 in 0 W/m2
02:47 38.3 °F 35.9 °F 30.41 in WNW 5.0 mph 6.0 mph 91 % 0.00 in 0 W/m2
02:53 38.1 °F 35.7 °F 30.41 in West 2.0 mph 5.0 mph 91 % 0.00 in 0 W/m2
02:58 37.9 °F 35.5 °F 30.41 in West 2.0 mph 5.0 mph 91 % 0.00 in 0 W/m2
03:03 37.8 °F 35.4 °F 30.41 in West 2.0 mph 6.0 mph 91 % 0.00 in 0 W/m2
03:08 37.6 °F 35.2 °F 30.40 in West 3.0 mph 5.0 mph 91 % 0.00 in 0 W/m2
03:13 37.6 °F 35.2 °F 30.40 in WNW 4.0 mph 6.0 mph 91 % 0.00 in 0 W/m2
03:18 37.6 °F 35.2 °F 30.41 in Calm   4.0 mph 91 % 0.00 in 0 W/m2
03:20 37.4 °F 35.0 °F 30.40 in West 1.0 mph 3.0 mph 91 % 0.00 in 0 W/m2
03:24 37.2 °F 34.8 °F 30.40 in West 2.0 mph 6.0 mph 91 % 0.00 in 0 W/m2
03:25 37.2 °F 34.8 °F 30.40 in West 4.0 mph 9.0 mph 91 % 0.00 in 0 W/m2
03:30 37.6 °F 35.5 °F 30.40 in WNW 7.0 mph 11.0 mph 92 % 0.00 in 0 W/m2
03:31 37.6 °F 35.5 °F 30.40 in WNW 7.0 mph 11.0 mph 92 % 0.00 in 0 W/m2
03:36 38.1 °F 36.3 °F 30.40 in WNW 8.0 mph 13.0 mph 93 % 0.00 in 0 W/m2
03:40 38.7 °F 36.8 °F 30.40 in WNW 8.0 mph 11.0 mph 93 % 0.00 in 0 W/m2
03:45 39.0 °F 37.2 °F 30.40 in WNW 8.0 mph 12.0 mph 93 % 0.00 in 0 W/m2
03:50 39.4 °F 37.2 °F 30.41 in WNW 8.0 mph 10.0 mph 92 % 0.00 in 0 W/m2
03:55 39.7 °F 37.3 °F 30.41 in NW 7.0 mph 9.0 mph 91 % 0.00 in 0 W/m2
04:00 39.7 °F 37.0 °F 30.41 in WNW 5.0 mph 8.0 mph 90 % 0.00 in 0 W/m2
04:05 39.7 °F 37.0 °F 30.41 in NW 6.0 mph 9.0 mph 90 % 0.00 in 0 W/m2
04:10 39.7 °F 37.0 °F 30.41 in WNW 7.0 mph 10.0 mph 90 % 0.00 in 0 W/m2
04:15 39.7 °F 37.0 °F 30.41 in WNW 6.0 mph 10.0 mph 90 % 0.00 in 0 W/m2
04:20 39.9 °F 37.2 °F 30.41 in NW 5.0 mph 8.0 mph 90 % 0.00 in 0 W/m2
04:25 39.9 °F 36.9 °F 30.41 in WNW 5.0 mph 8.0 mph 89 % 0.00 in 0 W/m2
04:30 39.9 °F 36.9 °F 30.41 in WNW 5.0 mph 7.0 mph 89 % 0.00 in 0 W/m2
04:35 39.7 °F 36.8 °F 30.41 in Calm   1.0 mph 89 % 0.00 in 0 W/m2
04:40 39.6 °F 36.3 °F 30.41 in WNW 3.0 mph 5.0 mph 88 % 0.00 in 0 W/m2
04:45 39.4 °F 36.4 °F 30.41 in WNW 4.0 mph 7.0 mph 89 % 0.00 in 0 W/m2
04:50 39.6 °F 36.9 °F 30.41 in WNW 2.0 mph 7.0 mph 90 % 0.00 in 0 W/m2
04:55 39.4 °F 36.4 °F 30.41 in WNW 2.0 mph 3.0 mph 89 % 0.00 in 0 W/m2
05:00 39.2 °F 36.2 °F 30.41 in WNW 2.0 mph 4.0 mph 89 % 0.00 in 0 W/m2
05:05 38.8 °F 35.9 °F 30.41 in WNW 3.0 mph 5.0 mph 89 % 0.00 in 0 W/m2
05:10 38.8 °F 35.9 °F 30.41 in WNW 1.0 mph 5.0 mph 89 % 0.00 in 0 W/m2
05:15 38.7 °F 36.0 °F 30.41 in WNW 2.0 mph 5.0 mph 90 % 0.00 in 0 W/m2
05:20 38.5 °F 35.8 °F 30.41 in WNW 1.0 mph 4.0 mph 90 % 0.00 in 0 W/m2
05:25 38.5 °F 35.8 °F 30.41 in WNW 2.0 mph 5.0 mph 90 % 0.00 in 0 W/m2
05:30 38.5 °F 36.1 °F 30.41 in WNW 4.0 mph 7.0 mph 91 % 0.00 in 0 W/m2
05:35 38.8 °F 36.7 °F 30.41 in WNW 5.0 mph 8.0 mph 92 % 0.00 in 0 W/m2
05:40 39.4 °F 37.5 °F 30.41 in WNW 6.0 mph 10.0 mph 93 % 0.00 in 0 W/m2
05:45 40.3 °F 38.4 °F 30.41 in WNW 6.0 mph 11.0 mph 93 % 0.00 in 0 W/m2
05:50 40.6 °F 38.8 °F 30.42 in WNW 7.0 mph 12.0 mph 93 % 0.00 in 0 W/m2
05:55 41.2 °F 39.3 °F 30.42 in WNW 7.0 mph 11.0 mph 93 % 0.00 in 0 W/m2
06:00 41.5 °F 39.7 °F 30.42 in WNW 8.0 mph 12.0 mph 93 % 0.00 in 0 W/m2
06:05 41.7 °F 39.8 °F 30.42 in NW 7.0 mph 10.0 mph 93 % 0.00 in 0 W/m2
06:10 42.1 °F 39.9 °F 30.42 in NW 7.0 mph 12.0 mph 92 % 0.00 in 0 W/m2
06:15 42.3 °F 40.1 °F 30.42 in WNW 5.0 mph 9.0 mph 92 % 0.00 in 0 W/m2
06:20 42.3 °F 40.1 °F 30.42 in WNW 6.0 mph 8.0 mph 92 % 0.00 in 0 W/m2
06:25 42.1 °F 39.9 °F 30.43 in WNW 6.0 mph 8.0 mph 92 % 0.00 in 0 W/m2
06:30 42.1 °F 39.6 °F 30.43 in WNW 6.0 mph 7.0 mph 91 % 0.00 in 0 W/m2
06:35 42.1 °F 39.9 °F 30.43 in WNW 6.0 mph 8.0 mph 92 % 0.00 in 0 W/m2
06:40 42.1 °F 39.9 °F 30.43 in WNW 5.0 mph 6.0 mph 92 % 0.00 in 0 W/m2
06:45 42.1 °F 39.9 °F 30.43 in WNW 5.0 mph 7.0 mph 92 % 0.00 in 0 W/m2
06:50 42.1 °F 39.9 °F 30.43 in WNW 6.0 mph 9.0 mph 92 % 0.00 in 0 W/m2
06:55 42.3 °F 40.4 °F 30.43 in WNW 7.0 mph 10.0 mph 93 % 0.00 in 0 W/m2
07:00 42.6 °F 40.7 °F 30.43 in WNW 8.0 mph 11.0 mph 93 % 0.00 in 0 W/m2
07:05 43.0 °F 41.1 °F 30.43 in WNW 8.0 mph 12.0 mph 93 % 0.00 in 0 W/m2
07:11 43.0 °F 40.8 °F 30.43 in WNW 8.0 mph 11.0 mph 92 % 0.00 in 0 W/m2
07:16 43.2 °F 41.0 °F 30.43 in WNW 8.0 mph 12.0 mph 92 % 0.00 in 0 W/m2
07:21 43.2 °F 41.0 °F 30.44 in WNW 8.0 mph 13.0 mph 92 % 0.00 in 0 W/m2
07:26 43.3 °F 41.2 °F 30.44 in WNW 7.0 mph 11.0 mph 92 % 0.00 in 0 W/m2
07:31 43.3 °F 41.2 °F 30.44 in WNW 9.0 mph 12.0 mph 92 % 0.00 in 0 W/m2
07:36 43.5 °F 41.4 °F 30.44 in WNW 8.0 mph 11.0 mph 92 % 0.00 in 0 W/m2
07:41 43.7 °F 41.5 °F 30.44 in WNW 9.0 mph 13.0 mph 92 % 0.00 in 0 W/m2
07:46 43.9 °F 41.7 °F 30.44 in WNW 8.0 mph 13.0 mph 92 % 0.00 in 0 W/m2
07:51 44.1 °F 41.9 °F 30.45 in WNW 9.0 mph 15.0 mph 92 % 0.00 in 0 W/m2
07:56 44.2 °F 42.1 °F 30.45 in WNW 10.0 mph 12.0 mph 92 % 0.00 in 0 W/m2
08:01 44.2 °F 42.1 °F 30.45 in WNW 9.0 mph 13.0 mph 92 % 0.00 in 5 W/m2
08:06 44.4 °F 42.2 °F 30.45 in WNW 9.0 mph 13.0 mph 92 % 0.00 in 7 W/m2
08:11 44.6 °F 42.4 °F 30.45 in WNW 10.0 mph 15.0 mph 92 % 0.00 in 9 W/m2
08:16 44.8 °F 42.6 °F 30.46 in WNW 8.0 mph 12.0 mph 92 % 0.00 in 11 W/m2
08:21 44.8 °F 42.6 °F 30.46 in WNW 9.0 mph 11.0 mph 92 % 0.00 in 12 W/m2
08:26 44.8 °F 42.6 °F 30.46 in WNW 8.0 mph 13.0 mph 92 % 0.00 in 14 W/m2
08:31 44.8 °F 42.6 °F 30.46 in WNW 9.0 mph 16.0 mph 92 % 0.00 in 16 W/m2
08:36 44.8 °F 42.6 °F 30.46 in WNW 9.0 mph 13.0 mph 92 % 0.00 in 21 W/m2
08:41 44.8 °F 42.6 °F 30.46 in WNW 8.0 mph 12.0 mph 92 % 0.00 in 19 W/m2
08:46 44.8 °F 42.6 °F 30.46 in WNW 9.0 mph 13.0 mph 92 % 0.00 in 21 W/m2
08:51 44.8 °F 42.9 °F 30.46 in WNW 8.0 mph 13.0 mph 93 % 0.00 in 25 W/m2
08:56 44.8 °F 42.9 °F 30.46 in WNW 11.0 mph 16.0 mph 93 % 0.00 in 26 W/m2
09:01 45.0 °F 43.1 °F 30.46 in WNW 10.0 mph 14.0 mph 93 % 0.00 in 25 W/m2
09:06 45.0 °F 43.1 °F 30.46 in WNW 10.0 mph 15.0 mph 93 % 0.00 in 25 W/m2
09:11 45.1 °F 43.2 °F 30.46 in WNW 9.0 mph 14.0 mph 93 % 0.00 in 25 W/m2
09:16 45.1 °F 43.2 °F 30.46 in WNW 10.0 mph 16.0 mph 93 % 0.00 in 25 W/m2
09:21 45.1 °F 43.2 °F 30.46 in WNW 9.0 mph 15.0 mph 93 % 0.00 in 26 W/m2
09:26 45.3 °F 43.4 °F 30.47 in WNW 9.0 mph 14.0 mph 93 % 0.00 in 135 W/m2
09:36 45.9 °F 44.0 °F 30.47 in WNW 10.0 mph 14.0 mph 93 % 0.00 in 162 W/m2
09:41 46.2 °F 44.3 °F 30.47 in WNW 9.0 mph 13.0 mph 93 % 0.00 in 107 W/m2
09:46 46.2 °F 44.0 °F 30.47 in WNW 8.0 mph 12.0 mph 92 % 0.00 in 95 W/m2
09:51 46.6 °F 44.4 °F 30.48 in West 9.0 mph 15.0 mph 92 % 0.00 in 179 W/m2
09:56 46.9 °F 44.4 °F 30.48 in WNW 9.0 mph 12.0 mph 91 % 0.00 in 185 W/m2
10:01 47.1 °F 44.6 °F 30.48 in West 10.0 mph 14.0 mph 91 % 0.00 in 174 W/m2
10:06 47.5 °F 44.7 °F 30.48 in West 9.0 mph 15.0 mph 90 % 0.00 in 185 W/m2
10:11 47.7 °F 44.9 °F 30.48 in West 9.0 mph 15.0 mph 90 % 0.00 in 220 W/m2
10:16 48.0 °F 45.2 °F 30.48 in West 10.0 mph 13.0 mph 90 % 0.00 in 248 W/m2
10:21 48.4 °F 45.3 °F 30.48 in West 9.0 mph 13.0 mph 89 % 0.00 in 211 W/m2
10:26 48.6 °F 45.5 °F 30.48 in West 8.0 mph 14.0 mph 89 % 0.00 in 220 W/m2
10:31 48.6 °F 45.2 °F 30.48 in West 9.0 mph 13.0 mph 88 % 0.00 in 209 W/m2
10:35 48.6 °F 45.2 °F 30.49 in West 8.0 mph 11.0 mph 88 % 0.00 in 244 W/m2
10:40 48.7 °F 45.3 °F 30.49 in West 9.0 mph 13.0 mph 88 % 0.00 in 127 W/m2
10:46 48.7 °F 45.0 °F 30.49 in WNW 8.0 mph 12.0 mph 87 % 0.00 in 93 W/m2
10:51 48.6 °F 45.2 °F 30.49 in WNW 9.0 mph 12.0 mph 88 % 0.00 in 120 W/m2
10:56 48.6 °F 45.2 °F 30.49 in WNW 11.0 mph 18.0 mph 88 % 0.00 in 58 W/m2
11:01 48.4 °F 44.7 °F 30.49 in WNW 9.0 mph 13.0 mph 87 % 0.00 in 35 W/m2
11:06 48.4 °F 45.0 °F 30.49 in WNW 8.0 mph 11.0 mph 88 % 0.00 in 199 W/m2
11:11 48.6 °F 45.2 °F 30.49 in WNW 7.0 mph 10.0 mph 88 % 0.00 in 69 W/m2
11:16 48.4 °F 44.7 °F 30.49 in WNW 7.0 mph 10.0 mph 87 % 0.00 in 47 W/m2
11:21 48.0 °F 44.6 °F 30.49 in West 6.0 mph 11.0 mph 88 % 0.00 in 51 W/m2
11:26 48.0 °F 44.6 °F 30.49 in WNW 8.0 mph 11.0 mph 88 % 0.00 in 90 W/m2
11:31 48.0 °F 44.9 °F 30.49 in WNW 8.0 mph 11.0 mph 89 % 0.00 in 359 W/m2
11:36 48.6 °F 45.5 °F 30.49 in West 6.0 mph 9.0 mph 89 % 0.00 in 158 W/m2
11:41 48.9 °F 45.5 °F 30.49 in WNW 5.0 mph 9.0 mph 88 % 0.00 in 114 W/m2
11:46 48.9 °F 45.5 °F 30.49 in WNW 7.0 mph 11.0 mph 88 % 0.00 in 116 W/m2
11:51 48.7 °F 45.0 °F 30.49 in WNW 8.0 mph 14.0 mph 87 % 0.00 in 77 W/m2
11:56 48.7 °F 44.7 °F 30.49 in WNW 9.0 mph 12.0 mph 86 % 0.00 in 67 W/m2
12:01 48.6 °F 44.6 °F 30.49 in West 9.0 mph 15.0 mph 86 % 0.00 in 72 W/m2
12:06 48.6 °F 44.6 °F 30.49 in WNW 10.0 mph 15.0 mph 86 % 0.00 in 44 W/m2
12:11 48.4 °F 44.7 °F 30.49 in WNW 9.0 mph 13.0 mph 87 % 0.00 in 86 W/m2
12:16 48.4 °F 45.0 °F 30.48 in West 8.0 mph 11.0 mph 88 % 0.00 in 269 W/m2
12:21 48.6 °F 45.2 °F 30.48 in West 8.0 mph 13.0 mph 88 % 0.00 in 251 W/m2
12:26 48.9 °F 45.5 °F 30.48 in WNW 8.0 mph 11.0 mph 88 % 0.00 in 267 W/m2
12:31 49.5 °F 45.4 °F 30.48 in WNW 9.0 mph 15.0 mph 86 % 0.00 in 315 W/m2
12:36 49.8 °F 45.5 °F 30.48 in WNW 10.0 mph 18.0 mph 85 % 0.00 in 301 W/m2
12:41 50.2 °F 45.5 °F 30.48 in WNW 10.0 mph 15.0 mph 84 % 0.00 in 144 W/m2
12:46 50.2 °F 45.2 °F 30.48 in WNW 11.0 mph 14.0 mph 83 % 0.00 in 95 W/m2
12:51 49.8 °F 44.9 °F 30.48 in WNW 11.0 mph 18.0 mph 83 % 0.00 in 116 W/m2
12:56 49.6 °F 45.0 °F 30.48 in WNW 7.0 mph 10.0 mph 84 % 0.00 in 111 W/m2
13:06 49.5 °F 45.1 °F 30.48 in WNW 8.0 mph 14.0 mph 85 % 0.00 in 271 W/m2
13:11 49.8 °F 45.5 °F 30.48 in WNW 9.0 mph 14.0 mph 85 % 0.00 in 355 W/m2
13:16 50.4 °F 45.7 °F 30.48 in WNW 10.0 mph 15.0 mph 84 % 0.00 in 151 W/m2
13:21 50.7 °F 45.7 °F 30.48 in WNW 9.0 mph 14.0 mph 83 % 0.00 in 83 W/m2
13:26 50.5 °F 45.2 °F 30.48 in WNW 11.0 mph 15.0 mph 82 % 0.00 in 221 W/m2
13:31 50.5 °F 45.2 °F 30.48 in WNW 10.0 mph 15.0 mph 82 % 0.00 in 62 W/m2
13:36 50.2 °F 44.9 °F 30.48 in WNW 9.0 mph 14.0 mph 82 % 0.00 in 33 W/m2
13:41 49.6 °F 44.4 °F 30.48 in WNW 9.0 mph 14.0 mph 82 % 0.00 in 42 W/m2
13:46 49.3 °F 44.3 °F 30.47 in WNW 7.0 mph 13.0 mph 83 % 0.00 in 49 W/m2
13:51 48.9 °F 44.0 °F 30.47 in WNW 8.0 mph 15.0 mph 83 % 0.00 in 127 W/m2
13:56 48.9 °F 44.3 °F 30.47 in WNW 8.0 mph 12.0 mph 84 % 0.00 in 125 W/m2
14:01 49.3 °F 44.6 °F 30.47 in WNW 7.0 mph 11.0 mph 84 % 0.00 in 39 W/m2
14:06 48.9 °F 44.3 °F 30.47 in WNW 5.0 mph 8.0 mph 84 % 0.00 in 62 W/m2
14:11 48.7 °F 44.1 °F 30.47 in WNW 7.0 mph 10.0 mph 84 % 0.00 in 107 W/m2
14:16 48.7 °F 44.1 °F 30.47 in WNW 6.0 mph 9.0 mph 84 % 0.00 in 141 W/m2
14:21 48.9 °F 44.3 °F 30.47 in WNW 7.0 mph 11.0 mph 84 % 0.00 in 104 W/m2
14:26 49.3 °F 44.3 °F 30.47 in WNW 5.0 mph 8.0 mph 83 % 0.00 in 121 W/m2
14:31 49.5 °F 44.5 °F 30.47 in WNW 6.0 mph 10.0 mph 83 % 0.00 in 111 W/m2
14:36 49.5 °F 44.2 °F 30.47 in WNW 9.0 mph 15.0 mph 82 % 0.00 in 100 W/m2
14:41 49.3 °F 44.0 °F 30.47 in WNW 10.0 mph 14.0 mph 82 % 0.00 in 98 W/m2
14:46 48.9 °F 44.0 °F 30.47 in WNW 8.0 mph 13.0 mph 83 % 0.00 in 86 W/m2
14:51 48.6 °F 43.6 °F 30.47 in West 6.0 mph 9.0 mph 83 % 0.00 in 47 W/m2
14:56 48.4 °F 43.5 °F 30.47 in West 7.0 mph 10.0 mph 83 % 0.00 in 19 W/m2
15:01 48.0 °F 43.1 °F 30.48 in West 5.0 mph 9.0 mph 83 % 0.00 in 18 W/m2
15:06 47.7 °F 43.1 °F 30.48 in West 5.0 mph 8.0 mph 84 % 0.00 in 26 W/m2
15:11 47.5 °F 42.9 °F 30.48 in West 5.0 mph 8.0 mph 84 % 0.00 in 26 W/m2
15:16 47.1 °F 42.8 °F 30.47 in West 5.0 mph 9.0 mph 85 % 0.00 in 16 W/m2
15:21 46.9 °F 42.7 °F 30.48 in WNW 7.0 mph 10.0 mph 85 % 0.00 in 16 W/m2
15:26 46.9 °F 43.0 °F 30.48 in WNW 7.0 mph 10.0 mph 86 % 0.00 in 12 W/m2
15:31 46.8 °F 42.8 °F 30.47 in WNW 8.0 mph 10.0 mph 86 % 0.00 in 9 W/m2
15:37 46.6 °F 42.9 °F 30.48 in WNW 7.0 mph 11.0 mph 87 % 0.00 in 7 W/m2
15:42 46.6 °F 42.9 °F 30.48 in WNW 9.0 mph 13.0 mph 87 % 0.00 in 7 W/m2
15:47 46.6 °F 43.2 °F 30.48 in WNW 7.0 mph 10.0 mph 88 % 0.00 in 5 W/m2
15:49 46.6 °F 43.2 °F 30.48 in NW 8.0 mph 12.0 mph 88 % 0.00 in 5 W/m2
15:54 46.8 °F 43.4 °F 30.48 in WNW 5.0 mph 10.0 mph 88 % 0.00 in 0 W/m2
15:59 46.8 °F 43.4 °F 30.48 in WNW 6.0 mph 10.0 mph 88 % 0.00 in 0 W/m2
16:04 46.8 °F 43.4 °F 30.48 in WNW 6.0 mph 10.0 mph 88 % 0.00 in 0 W/m2
16:09 46.9 °F 43.6 °F 30.48 in WNW 7.0 mph 12.0 mph 88 % 0.00 in 0 W/m2
16:14 46.9 °F 43.6 °F 30.48 in West 5.0 mph 8.0 mph 88 % 0.00 in 0 W/m2
16:19 46.9 °F 43.6 °F 30.48 in WNW 4.0 mph 9.0 mph 88 % 0.00 in 0 W/m2
16:24 46.9 °F 43.6 °F 30.49 in WNW 7.0 mph 10.0 mph 88 % 0.00 in 0 W/m2
16:30 46.9 °F 43.6 °F 30.49 in WNW 5.0 mph 7.0 mph 88 % 0.00 in 0 W/m2
16:35 46.9 °F 43.6 °F 30.49 in WNW 5.0 mph 7.0 mph 88 % 0.00 in 0 W/m2
16:40 47.1 °F 43.7 °F 30.49 in West 7.0 mph 10.0 mph 88 % 0.00 in 0 W/m2
16:45 47.1 °F 43.4 °F 30.49 in WNW 6.0 mph 10.0 mph 87 % 0.00 in 0 W/m2
16:50 47.1 °F 43.4 °F 30.49 in WNW 4.0 mph 7.0 mph 87 % 0.00 in 0 W/m2
16:55 47.1 °F 43.4 °F 30.50 in WNW 6.0 mph 10.0 mph 87 % 0.00 in 0 W/m2
17:00 46.9 °F 43.3 °F 30.50 in WNW 5.0 mph 8.0 mph 87 % 0.00 in 0 W/m2
17:05 46.9 °F 43.3 °F 30.50 in WNW 6.0 mph 9.0 mph 87 % 0.00 in 0 W/m2
17:10 47.1 °F 43.4 °F 30.50 in WNW 4.0 mph 6.0 mph 87 % 0.00 in 0 W/m2
17:15 47.1 °F 43.4 °F 30.50 in West 5.0 mph 10.0 mph 87 % 0.00 in 0 W/m2
17:20 47.1 °F 43.4 °F 30.50 in WNW 6.0 mph 8.0 mph 87 % 0.00 in 0 W/m2
17:25 46.9 °F 43.3 °F 30.50 in NW 5.0 mph 8.0 mph 87 % 0.00 in 0 W/m2
17:30 47.1 °F 43.4 °F 30.50 in WNW 5.0 mph 9.0 mph 87 % 0.00 in 0 W/m2
17:35 47.1 °F 43.4 °F 30.50 in WNW 3.0 mph 7.0 mph 87 % 0.00 in 0 W/m2
17:40 47.1 °F 43.4 °F 30.50 in Calm   2.0 mph 87 % 0.00 in 0 W/m2
17:45 47.1 °F 43.4 °F 30.50 in WNW 6.0 mph 11.0 mph 87 % 0.00 in 0 W/m2
17:50 47.1 °F 43.4 °F 30.50 in NW 7.0 mph 14.0 mph 87 % 0.00 in 0 W/m2
17:55 46.9 °F 43.3 °F 30.50 in WNW 10.0 mph 15.0 mph 87 % 0.00 in 0 W/m2
18:00 46.9 °F 43.3 °F 30.50 in WNW 7.0 mph 12.0 mph 87 % 0.00 in 0 W/m2
18:05 46.9 °F 43.3 °F 30.51 in NW 6.0 mph 11.0 mph 87 % 0.00 in 0 W/m2
18:10 46.8 °F 43.4 °F 30.51 in WNW 7.0 mph 11.0 mph 88 % 0.00 in 0 W/m2
18:15 46.8 °F 43.4 °F 30.50 in WNW 8.0 mph 12.0 mph 88 % 0.00 in 0 W/m2
18:20 46.8 °F 43.4 °F 30.50 in WNW 5.0 mph 11.0 mph 88 % 0.00 in 0 W/m2
18:25 46.8 °F 43.4 °F 30.50 in WNW 5.0 mph 8.0 mph 88 % 0.00 in 0 W/m2
18:30 46.8 °F 43.4 °F 30.50 in WNW 4.0 mph 8.0 mph 88 % 0.00 in 0 W/m2
18:35 46.6 °F 43.2 °F 30.50 in WNW 3.0 mph 7.0 mph 88 % 0.00 in 0 W/m2
18:40 46.6 °F 43.2 °F 30.50 in WNW 6.0 mph 8.0 mph 88 % 0.00 in 0 W/m2
18:45 46.6 °F 42.9 °F 30.51 in NW 5.0 mph 7.0 mph 87 % 0.00 in 0 W/m2
18:50 46.6 °F 42.9 °F 30.51 in NW 4.0 mph 8.0 mph 87 % 0.00 in 0 W/m2
18:55 46.6 °F 42.9 °F 30.51 in WNW 2.0 mph 8.0 mph 87 % 0.00 in 0 W/m2
19:00 46.6 °F 42.9 °F 30.51 in WNW 5.0 mph 9.0 mph 87 % 0.00 in 0 W/m2
19:05 46.6 °F 42.6 °F 30.51 in West 3.0 mph 7.0 mph 86 % 0.00 in 0 W/m2
19:10 46.6 °F 42.6 °F 30.51 in WSW 3.0 mph 6.0 mph 86 % 0.00 in 0 W/m2
19:15 46.6 °F 42.6 °F 30.51 in WNW 4.0 mph 9.0 mph 86 % 0.00 in 0 W/m2
19:20 46.6 °F 42.6 °F 30.51 in WNW 5.0 mph 8.0 mph 86 % 0.00 in 0 W/m2
19:25 46.6 °F 42.6 °F 30.51 in WNW 2.0 mph 5.0 mph 86 % 0.00 in 0 W/m2
19:26 46.6 °F 42.6 °F 30.51 in WNW 1.0 mph 5.0 mph 86 % 0.00 in 0 W/m2
19:31 46.6 °F 42.6 °F 30.51 in West 5.0 mph 10.0 mph 86 % 0.00 in 0 W/m2
19:36 46.8 °F 42.8 °F 30.51 in WNW 6.0 mph 10.0 mph 86 % 0.00 in 0 W/m2
19:41 46.8 °F 42.8 °F 30.51 in WNW 7.0 mph 10.0 mph 86 % 0.00 in 0 W/m2
19:46 46.8 °F 42.8 °F 30.51 in WNW 7.0 mph 13.0 mph 86 % 0.00 in 0 W/m2
19:51 46.8 °F 42.8 °F 30.51 in WNW 5.0 mph 8.0 mph 86 % 0.00 in 0 W/m2
19:56 46.8 °F 42.8 °F 30.52 in WNW 6.0 mph 10.0 mph 86 % 0.00 in 0 W/m2
20:01 46.8 °F 43.1 °F 30.51 in WNW 7.0 mph 13.0 mph 87 % 0.00 in 0 W/m2
20:06 46.8 °F 43.1 °F 30.51 in WNW 5.0 mph 8.0 mph 87 % 0.00 in 0 W/m2
20:11 46.8 °F 43.1 °F 30.52 in WNW 6.0 mph 10.0 mph 87 % 0.00 in 0 W/m2
20:16 46.8 °F 43.1 °F 30.52 in WNW 5.0 mph 10.0 mph 87 % 0.00 in 0 W/m2
20:21 46.8 °F 43.1 °F 30.52 in West 6.0 mph 8.0 mph 87 % 0.00 in 0 W/m2
20:26 46.8 °F 43.1 °F 30.51 in WNW 7.0 mph 10.0 mph 87 % 0.00 in 0 W/m2
20:31 46.8 °F 43.1 °F 30.52 in WNW 8.0 mph 15.0 mph 87 % 0.00 in 0 W/m2
20:37 46.8 °F 43.1 °F 30.51 in WNW 8.0 mph 12.0 mph 87 % 0.00 in 0 W/m2
20:42 46.8 °F 43.1 °F 30.51 in WNW 8.0 mph 13.0 mph 87 % 0.00 in 0 W/m2
20:47 46.8 °F 43.1 °F 30.51 in West 5.0 mph 8.0 mph 87 % 0.00 in 0 W/m2
20:52 46.8 °F 43.1 °F 30.52 in WNW 8.0 mph 15.0 mph 87 % 0.00 in 0 W/m2
20:57 46.8 °F 43.1 °F 30.52 in West 7.0 mph 9.0 mph 87 % 0.00 in 0 W/m2
21:02 46.8 °F 43.1 °F 30.52 in West 6.0 mph 9.0 mph 87 % 0.00 in 0 W/m2
21:07 46.8 °F 43.1 °F 30.52 in WNW 5.0 mph 8.0 mph 87 % 0.00 in 0 W/m2
21:12 46.8 °F 43.1 °F 30.52 in WNW 8.0 mph 12.0 mph 87 % 0.00 in 0 W/m2
21:17 46.8 °F 43.1 °F 30.52 in WNW 7.0 mph 11.0 mph 87 % 0.00 in 0 W/m2
21:22 46.8 °F 43.1 °F 30.52 in WNW 4.0 mph 8.0 mph 87 % 0.00 in 0 W/m2
21:27 46.8 °F 43.1 °F 30.52 in WNW 6.0 mph 10.0 mph 87 % 0.00 in 0 W/m2
21:32 46.6 °F 42.9 °F 30.52 in WNW 8.0 mph 12.0 mph 87 % 0.00 in 0 W/m2
21:37 46.8 °F 43.1 °F 30.52 in WNW 7.0 mph 12.0 mph 87 % 0.00 in 0 W/m2
21:42 46.6 °F 42.9 °F 30.52 in WNW 7.0 mph 11.0 mph 87 % 0.00 in 0 W/m2
21:47 46.6 °F 42.9 °F 30.52 in West 7.0 mph 9.0 mph 87 % 0.00 in 0 W/m2
21:49 46.6 °F 42.9 °F 30.52 in WNW 4.0 mph 8.0 mph 87 % 0.00 in 0 W/m2
21:54 46.6 °F 42.9 °F 30.52 in WNW 6.0 mph 10.0 mph 87 % 0.00 in 0 W/m2
21:59 46.6 °F 42.9 °F 30.52 in WNW 5.0 mph 9.0 mph 87 % 0.00 in 0 W/m2
22:04 46.6 °F 42.9 °F 30.52 in West 6.0 mph 9.0 mph 87 % 0.00 in 0 W/m2
22:09 46.6 °F 42.9 °F 30.52 in West 8.0 mph 12.0 mph 87 % 0.00 in 0 W/m2
22:14 46.6 °F 42.6 °F 30.52 in West 7.0 mph 10.0 mph 86 % 0.00 in 0 W/m2
22:19 46.6 °F 42.6 °F 30.52 in WNW 9.0 mph 12.0 mph 86 % 0.00 in 0 W/m2
22:24 46.6 °F 42.6 °F 30.52 in WNW 8.0 mph 12.0 mph 86 % 0.00 in 0 W/m2
22:29 46.8 °F 42.8 °F 30.52 in WNW 9.0 mph 13.0 mph 86 % 0.00 in 0 W/m2
22:34 46.8 °F 42.8 °F 30.52 in WNW 8.0 mph 11.0 mph 86 % 0.00 in 0 W/m2
22:39 46.8 °F 42.5 °F 30.52 in West 10.0 mph 13.0 mph 85 % 0.00 in 0 W/m2
22:44 46.8 °F 42.5 °F 30.52 in WNW 8.0 mph 10.0 mph 85 % 0.00 in 0 W/m2
22:49 46.8 °F 42.5 °F 30.52 in WNW 8.0 mph 12.0 mph 85 % 0.00 in 0 W/m2
22:54 46.8 °F 42.5 °F 30.52 in WNW 8.0 mph 10.0 mph 85 % 0.00 in 0 W/m2
22:59 46.8 °F 42.5 °F 30.52 in WNW 6.0 mph 9.0 mph 85 % 0.00 in 0 W/m2
23:04 46.8 °F 42.5 °F 30.52 in West 6.0 mph 9.0 mph 85 % 0.00 in 0 W/m2
23:09 46.8 °F 42.5 °F 30.52 in West 6.0 mph 9.0 mph 85 % 0.00 in 0 W/m2
23:14 46.8 °F 42.5 °F 30.52 in West 5.0 mph 8.0 mph 85 % 0.00 in 0 W/m2
23:19 46.8 °F 42.5 °F 30.52 in WNW 6.0 mph 8.0 mph 85 % 0.00 in 0 W/m2
23:24 46.8 °F 42.5 °F 30.52 in West 6.0 mph 8.0 mph 85 % 0.00 in 0 W/m2
23:29 46.8 °F 42.5 °F 30.52 in West 5.0 mph 8.0 mph 85 % 0.00 in 0 W/m2
23:34 46.8 °F 42.5 °F 30.52 in West 6.0 mph 9.0 mph 85 % 0.00 in 0 W/m2
23:39 46.8 °F 42.5 °F 30.52 in West 6.0 mph 8.0 mph 85 % 0.00 in 0 W/m2
23:44 46.8 °F 42.5 °F 30.52 in West 7.0 mph 10.0 mph 85 % 0.00 in 0 W/m2
23:49 46.8 °F 42.5 °F 30.52 in West 6.0 mph 8.0 mph 85 % 0.00 in 0 W/m2
23:54 46.8 °F 42.5 °F 30.52 in West 6.0 mph 8.0 mph 85 % 0.00 in 0 W/m2
Delerius-Weather
Compliments of Weather Underground - 2.25 mb

Data updates at regular intervals.